This is the latest recevied weather packets stored in our database for station/object F4FSZ-11. If no packets are shown the sender has not sent any weather packets the latest 10 day(s).
| Time | Temp. | Humidity | Pressure | Rain* | Wind** | Luminosity | Snow |
|---|---|---|---|---|---|---|---|
| 1788139831 | 63° F | 100% | 758.5 mmHg | - | - | - | - |
| 1788138931 | 63° F | 100% | 758.5 mmHg | - | - | - | - |
| 1788138031 | 63° F | 100% | 758.2 mmHg | - | - | - | - |
| 1788137131 | 63° F | 100% | 758.2 mmHg | - | - | - | - |
| 1788136231 | 64° F | 100% | 758.1 mmHg | - | - | - | - |
| 1788135330 | 64° F | 100% | 758 mmHg | - | - | - | - |
| 1788134430 | 64° F | 100% | 757.9 mmHg | - | - | - | - |
| 1788133530 | 64° F | 100% | 757.9 mmHg | - | - | - | - |
| 1788132630 | 65° F | 100% | 757.9 mmHg | - | - | - | - |
| 1788131730 | 65° F | 100% | 757.9 mmHg | - | - | - | - |
| 1788130830 | 64° F | 100% | 757.9 mmHg | - | - | - | - |
| 1788129930 | 65° F | 100% | 758 mmHg | - | - | - | - |
| 1788129030 | 65° F | 100% | 758.1 mmHg | - | - | - | - |
| 1788128130 | 65° F | 100% | 757.9 mmHg | - | - | - | - |
| 1788127230 | 65° F | 100% | 757.9 mmHg | - | - | - | - |
| 1788126330 | 65° F | 100% | 757.4 mmHg | - | - | - | - |
| 1788125430 | 65° F | 100% | 757.3 mmHg | - | - | - | - |
| 1788124530 | 64° F | 100% | 757.8 mmHg | - | - | - | - |
| 1788123629 | 64° F | 100% | 757.8 mmHg | - | - | - | - |
| 1788122729 | 69° F | 79% | 756.9 mmHg | - | - | - | - |
| 1788121829 | 69° F | 85% | 756.4 mmHg | - | - | - | - |
| 1788120929 | 68° F | 86% | 756.4 mmHg | - | - | - | - |
| 1788120029 | 68° F | 87% | 756.4 mmHg | - | - | - | - |
| 1788119129 | 69° F | 84% | 756.4 mmHg | - | - | - | - |
| 1788118229 | 69° F | 83% | 756.6 mmHg | - | - | - | - |
* Rain since midnight (hover to see other rain measurements)
** Current wind speed in m/s (hover to see current wind gust speed)